New Haven, Illinois
Current Conditions -  °F | °C
As of 6:55 PM on Sunday 23 Nov 2014 (Local Time) from KCUL Reporting Station
Moderate Rain Moderate Rain  
Wind Chill: 57°   Ceiling: 600
Heat Index: 57°   Visibility: 7mi
Dew Point: 56°   Wind: 6mph
Humidity: 99%   Direction: 220°SW
Pressure: 29.26"   Gusts: NA
Location:  37.91°N, 88.13°W
Report Text: KCUL 240055Z AUTO 22005KT 7SM RA OVC006 14/14 A2926 RMK AO2 P0015 T01370136
Loading
Personal Weather Stations






























Interactive Weather Map New forecast layout! Learn more

10-Day Weather Forecast

Advertisements
Track Severe Weather on mobile